KIWD/IWD METAR and TAF weather

Enter ICAO airport designator
Station Type Date Time Source
KIWD METAR 2019/05/26 00:56 UTC NOAA

KIWD 260056Z AUTO 30007KT 10SM SCT048 BKN060 OVC080 16/08 A2991 RMK AO2 RAB32E43 SLP126 P0000 T01610078


Station Type Date Time Source
KIWD Decoded METAR 2019/05/26 00:56 UTC NOAA

Ironwood, Gogebic-Iron County Airport, MI, United States (KIWD) 46-32N 090-08W
May 25, 2019 - 08:56 PM EDT / 2019.05.26 0056 UTC
Wind: from the WNW (300 degrees) at 8 MPH (7 KT):0
Visibility: 10 mile(s):0
Sky conditions: overcast
Precipitation last hour: A trace
Temperature: 61.0 F (16.1 C)
Dew Point: 46.0 F (7.8 C)
Relative Humidity: 57%
Pressure (altimeter): 29.91 in. Hg (1012 hPa)
ob: KIWD 260056Z AUTO 30007KT 10SM SCT048 BKN060 OVC080 16/08 A2991 RMK AO2 RAB32E43 SLP126 P0000 T01610078
cycle: 1

Station Type Date Time Source
KIWD TAF 2019/05/25 22:46 UTC NOAA

TAF
AMD KIWD 252144Z 2522/2618 28013G22KT P6SM BKN040
FM260200 28004KT P6SM SCT035
FM261300 26004KT P6SM FEW180

Example: see airport list